createdAt,value
2023-02-02T00:03:41.209Z,87.40
2023-02-02T00:08:43.930Z,87.60
2023-02-02T00:13:46.512Z,86.30
2023-02-02T00:18:49.426Z,84.40
2023-02-02T00:23:52.101Z,79.60
2023-02-02T00:28:54.712Z,81.70
2023-02-02T00:33:57.369Z,85.10
2023-02-02T00:38:59.898Z,85.10
2023-02-02T00:44:21.233Z,86.40
2023-02-02T00:49:23.789Z,84.20
2023-02-02T00:54:26.834Z,82.60
2023-02-02T00:59:29.325Z,86.20
2023-02-02T01:04:32.026Z,87.80
2023-02-02T01:09:34.589Z,83.40
2023-02-02T01:14:37.037Z,84.20
2023-02-02T01:19:39.584Z,87.20
2023-02-02T01:24:42.178Z,86.00
2023-02-02T01:29:44.722Z,81.10
2023-02-02T01:34:47.291Z,89.40
2023-02-02T01:39:49.852Z,89.60
2023-02-02T01:45:14.481Z,90.00
2023-02-02T01:50:18.293Z,90.50
2023-02-02T01:55:23.956Z,86.60
2023-02-02T02:00:28.047Z,92.30
2023-02-02T02:05:38.263Z,89.00
2023-02-02T02:10:40.885Z,93.40
2023-02-02T02:16:21.430Z,90.60
2023-02-02T02:22:12.776Z,90.70
2023-02-02T02:27:39.548Z,91.60
2023-02-02T02:33:09.796Z,91.40
2023-02-02T02:38:37.772Z,89.20
2023-02-02T02:43:52.856Z,86.40
2023-02-02T02:49:01.590Z,87.70
2023-02-02T02:54:04.382Z,88.30
2023-02-02T02:59:20.295Z,87.80
2023-02-02T03:04:45.431Z,86.90
2023-02-02T03:09:50.429Z,85.30
2023-02-02T03:14:52.877Z,85.80
2023-02-02T03:19:55.331Z,82.30
2023-02-02T03:24:59.577Z,89.30
2023-02-02T03:30:02.374Z,87.70
2023-02-02T03:35:05.285Z,88.60
2023-02-02T03:40:08.528Z,81.20
2023-02-02T03:45:11.544Z,85.00
2023-02-02T03:50:14.462Z,90.10
2023-02-02T03:55:17.354Z,88.80
2023-02-02T04:00:20.220Z,87.20
2023-02-02T04:05:23.060Z,84.90
2023-02-02T04:10:25.624Z,86.00
2023-02-02T04:15:28.162Z,89.10
2023-02-02T04:20:30.814Z,87.00
2023-02-02T04:25:33.448Z,86.00
2023-02-02T04:30:36.381Z,87.00
2023-02-02T04:35:38.907Z,88.40
2023-02-02T04:40:43.133Z,86.20
2023-02-02T04:45:45.717Z,87.80
2023-02-02T04:50:48.239Z,86.60
2023-02-02T04:55:50.794Z,86.50
2023-02-02T05:00:53.406Z,85.90
2023-02-02T05:06:03.204Z,85.40
2023-02-02T05:11:14.023Z,86.90
2023-02-02T05:16:16.782Z,84.20
2023-02-02T05:21:20.568Z,84.60
2023-02-02T05:26:25.880Z,89.00
2023-02-02T05:31:28.762Z,87.10
2023-02-02T05:36:31.305Z,87.60
2023-02-02T05:41:33.789Z,84.00
2023-02-02T05:46:36.385Z,86.10
2023-02-02T05:51:43.620Z,88.60
2023-02-02T05:56:47.893Z,87.10
2023-02-02T06:01:50.502Z,85.70
2023-02-02T06:06:53.077Z,90.80
2023-02-02T06:11:55.682Z,90.00
2023-02-02T06:16:58.174Z,90.40
2023-02-02T06:22:00.845Z,86.00
2023-02-02T06:27:03.436Z,89.00
2023-02-02T06:32:06.038Z,87.20
2023-02-02T06:37:08.686Z,90.70
2023-02-02T06:42:20.746Z,87.20
2023-02-02T06:47:26.546Z,85.70
2023-02-02T06:52:29.517Z,87.80
2023-02-02T06:57:32.057Z,86.00
2023-02-02T07:02:36.015Z,87.60
2023-02-02T07:07:38.595Z,86.00
2023-02-02T07:12:41.091Z,91.50
2023-02-02T07:17:43.691Z,85.70
2023-02-02T07:22:46.386Z,84.30
2023-02-02T07:27:56.188Z,82.80
2023-02-02T07:32:59.370Z,88.30
2023-02-02T07:38:01.926Z,85.70
2023-02-02T07:43:05.025Z,88.70
2023-02-02T07:48:07.469Z,90.50
2023-02-02T07:53:09.950Z,88.20
2023-02-02T07:58:12.466Z,84.40
2023-02-02T08:03:15.193Z,91.10
2023-02-02T08:08:17.751Z,86.80
2023-02-02T08:13:20.929Z,90.00
2023-02-02T08:18:23.430Z,87.70
2023-02-02T08:23:26.032Z,91.50
2023-02-02T08:28:28.664Z,86.60
2023-02-02T08:33:31.251Z,90.00
2023-02-02T08:38:33.729Z,89.90
2023-02-02T08:43:37.490Z,88.70
2023-02-02T08:48:40.327Z,87.30
2023-02-02T08:53:43.105Z,82.20
2023-02-02T08:58:49.107Z,94.70
2023-02-02T09:03:56.283Z,92.40
2023-02-02T09:08:58.890Z,91.90
2023-02-02T09:14:03.177Z,86.60
2023-02-02T09:19:06.602Z,88.80
2023-02-02T09:24:14.089Z,86.50
2023-02-02T09:29:21.461Z,83.30
2023-02-02T09:34:24.168Z,86.40
2023-02-02T09:39:26.936Z,90.60
2023-02-02T09:44:59.984Z,92.70
2023-02-02T09:50:17.077Z,89.70
2023-02-02T09:55:35.173Z,88.40
2023-02-02T10:00:48.186Z,95.40
2023-02-02T10:06:02.810Z,92.10
2023-02-02T10:11:27.512Z,92.70
2023-02-02T10:16:31.284Z,94.30
2023-02-02T10:21:38.194Z,91.90
2023-02-02T10:26:48.440Z,97.90
2023-02-02T10:32:00.034Z,92.20
2023-02-02T10:37:12.026Z,98.80
2023-02-02T10:42:25.644Z,96.00
2023-02-02T10:47:32.379Z,96.50
2023-02-02T10:52:36.944Z,98.80
2023-02-02T10:58:12.048Z,95.40
2023-02-02T11:03:17.230Z,90.40
2023-02-02T11:08:25.238Z,78.70
2023-02-02T11:13:40.761Z,83.40
2023-02-02T11:18:44.972Z,85.60
2023-02-02T11:23:54.072Z,77.00
2023-02-02T11:28:59.976Z,76.30
2023-02-02T11:34:23.155Z,80.10
2023-02-02T11:39:26.433Z,81.50
2023-02-02T11:44:32.379Z,73.80
2023-02-02T11:49:43.792Z,81.80
2023-02-02T11:54:50.159Z,77.20
2023-02-02T12:00:15.837Z,82.40
2023-02-02T12:05:21.349Z,76.50
2023-02-02T12:10:48.377Z,85.00
2023-02-02T12:16:11.140Z,71.70
2023-02-02T12:21:16.819Z,74.70
2023-02-02T12:26:30.767Z,75.70
2023-02-02T12:31:36.076Z,70.30
2023-02-02T12:36:41.754Z,70.50
2023-02-02T12:42:00.303Z,79.50
2023-02-02T12:47:08.903Z,77.00
2023-02-02T12:52:26.324Z,74.70
2023-02-02T12:58:01.488Z,73.00
2023-02-02T13:03:11.710Z,77.20
2023-02-02T13:08:20.054Z,70.10
2023-02-02T13:13:36.867Z,78.80
2023-02-02T13:18:45.631Z,71.30
2023-02-02T13:23:54.001Z,73.10
2023-02-02T13:29:11.732Z,72.90
2023-02-02T13:34:26.958Z,91.70
2023-02-02T13:39:36.430Z,75.50
2023-02-02T13:44:44.264Z,79.60
2023-02-02T13:49:52.708Z,75.90
2023-02-02T13:55:41.046Z,83.10
2023-02-02T14:01:04.527Z,91.20
2023-02-02T14:06:17.677Z,85.60
2023-02-02T14:11:31.110Z,84.20
2023-02-02T14:16:33.606Z,77.50
2023-02-02T14:21:36.257Z,74.90
2023-02-02T14:26:48.557Z,76.40
2023-02-02T14:31:56.509Z,82.30
2023-02-02T14:37:22.820Z,78.20
2023-02-02T14:42:58.852Z,86.70
2023-02-02T14:48:06.460Z,91.30
2023-02-02T14:53:28.983Z,79.50
2023-02-02T14:58:44.215Z,78.50
2023-02-02T15:04:05.459Z,85.70
2023-02-02T15:09:20.256Z,95.00
2023-02-02T15:14:25.384Z,99.20
2023-02-02T15:19:36.066Z,99.90
2023-02-02T15:24:39.200Z,99.90
2023-02-02T15:29:45.916Z,99.90
2023-02-02T15:35:16.914Z,99.90
2023-02-02T15:40:25.954Z,99.90
2023-02-02T15:45:28.636Z,99.90
2023-02-02T15:50:31.318Z,99.90
2023-02-02T15:55:36.126Z,99.90
2023-02-02T16:00:39.225Z,99.90
2023-02-02T16:05:52.017Z,99.90
2023-02-02T16:11:20.015Z,99.90
2023-02-02T16:16:24.267Z,99.90
2023-02-02T16:21:27.990Z,99.90
2023-02-02T16:26:32.714Z,99.90
2023-02-02T16:31:36.097Z,99.90
2023-02-02T16:36:38.819Z,99.90
2023-02-02T16:41:41.447Z,99.90
2023-02-02T16:46:47.831Z,99.90
2023-02-02T16:52:10.288Z,99.90
2023-02-02T16:57:21.701Z,99.90
2023-02-02T17:02:29.351Z,99.90
2023-02-02T17:07:33.715Z,99.90
2023-02-02T17:12:36.408Z,99.90
2023-02-02T17:17:38.888Z,99.90
2023-02-02T17:22:44.348Z,99.90
2023-02-02T17:27:47.077Z,99.90
2023-02-02T17:32:49.607Z,99.80
2023-02-02T17:37:52.844Z,99.90
2023-02-02T17:42:55.439Z,99.90
2023-02-02T17:47:57.932Z,99.90
2023-02-02T17:53:00.427Z,99.90
2023-02-02T17:58:03.062Z,99.90
2023-02-02T18:03:13.930Z,99.90
2023-02-02T18:08:16.932Z,99.40
2023-02-02T18:13:21.928Z,99.90
2023-02-02T18:18:24.484Z,99.90
2023-02-02T18:23:26.998Z,99.90
2023-02-02T18:28:29.439Z,96.30
2023-02-02T18:33:31.974Z,99.90
2023-02-02T18:38:34.596Z,99.90
2023-02-02T18:43:37.044Z,93.40
2023-02-02T18:48:40.719Z,99.90
2023-02-02T18:53:44.296Z,99.90
2023-02-02T18:58:46.926Z,99.90
2023-02-02T19:03:51.798Z,99.90
2023-02-02T19:08:55.086Z,98.20
2023-02-02T19:13:59.085Z,96.10
2023-02-02T19:19:33.419Z,95.70
2023-02-02T19:24:39.843Z,95.10
2023-02-02T19:29:42.427Z,92.30
2023-02-02T19:34:46.113Z,94.80
2023-02-02T19:39:48.657Z,97.80
2023-02-02T19:44:51.156Z,98.30
2023-02-02T19:49:53.746Z,94.40
2023-02-02T19:54:56.276Z,99.80
2023-02-02T20:00:01.814Z,94.50
2023-02-02T20:05:07.046Z,96.30
2023-02-02T20:10:37.639Z,95.70
2023-02-02T20:15:40.241Z,96.60
2023-02-02T20:20:44.634Z,93.70
2023-02-02T20:25:47.303Z,95.60
2023-02-02T20:30:50.049Z,95.10
2023-02-02T20:35:52.699Z,95.10
2023-02-02T20:40:56.413Z,93.50
2023-02-02T20:45:59.059Z,91.90
2023-02-02T20:51:01.799Z,94.50
2023-02-02T20:56:04.746Z,97.10
2023-02-02T21:01:08.205Z,97.90
2023-02-02T21:06:10.913Z,98.80
2023-02-02T21:11:13.518Z,98.50
2023-02-02T21:16:16.341Z,97.90
2023-02-02T21:21:21.238Z,95.50
2023-02-02T21:26:29.898Z,95.50
2023-02-02T21:31:35.387Z,98.50
2023-02-02T21:36:38.011Z,91.90
2023-02-02T21:41:40.709Z,88.30
2023-02-02T21:46:44.363Z,92.40
2023-02-02T21:51:46.844Z,93.70
2023-02-02T21:56:50.272Z,92.40
2023-02-02T22:01:54.076Z,93.50
2023-02-02T22:07:12.713Z,86.20
2023-02-02T22:12:22.411Z,92.10
2023-02-02T22:17:27.161Z,90.20
2023-02-02T22:22:34.510Z,93.30
2023-02-02T22:27:42.344Z,93.50
2023-02-02T22:32:44.885Z,95.40
2023-02-02T22:37:47.643Z,95.70
2023-02-02T22:42:51.072Z,93.80
2023-02-02T22:47:54.191Z,92.60
2023-02-02T22:52:56.910Z,94.60
2023-02-02T22:57:59.598Z,93.30
2023-02-02T23:03:02.295Z,95.00
2023-02-02T23:08:04.999Z,94.70
2023-02-02T23:13:07.696Z,94.90
2023-02-02T23:18:10.261Z,94.20
2023-02-02T23:23:12.753Z,96.80
2023-02-02T23:28:15.347Z,95.30
2023-02-02T23:33:17.948Z,95.70
2023-02-02T23:38:20.617Z,92.70
2023-02-02T23:43:23.174Z,89.90
2023-02-02T23:48:25.779Z,92.40
2023-02-02T23:53:28.683Z,91.30
2023-02-02T23:58:31.414Z,93.70
